Tinsdal — V2AJ2 — position and weather

sailwx.info

Track history (hours):
 
Tides and Currents Weather Stations Pressure Air Temp Water Temp Dewpoint Dewpoint Depression Visibility Wind Speed Wind Dir Waves Ship Positions

Tinsdal

Last reported at 2016-Dec-09 11:28 UTC. Time now 2016-Dec-10 01:06 UTC.
Position N 38°20' E 012°40'.

Length 90 m; draft 5.5 m.

Type: Cargo ship. MMSI: 305573000.

Date/timePositionNaut miles runAvg speedWind from/ knotsBaromVisibWave heightAir tempDewpointWater temp
2016-Dec-09 11:28N 38°20' E 012°40'1310.4
2016-Dec-09 10:15N 38°23' E 012°56'710.0
2016-Dec-09 09:33N 38°23' E 013°05'1010.2
2016-Dec-09 08:34N 38°23' E 013°18'1010.4
2016-Dec-09 07:34N 38°23' E 013°31'5410.8
2016-Dec-09 02:30N 38°20' E 014°40'1010.6
2016-Dec-09 01:33N 38°19' E 014°53'1010.2
2016-Dec-09 00:34N 38°19' E 015°06'1010.0
2016-Dec-08 23:34N 38°20' E 015°19'1010.2
2016-Dec-08 22:33N 38°21' E 015°32'9 9.0
2016-Dec-08 21:34N 38°17' E 015°42'9 9.4
2016-Dec-08 20:34N 38°08' E 015°37'1110.5
2016-Dec-08 19:33N 37°58' E 015°37'10 9.9
2016-Dec-08 18:33N 37°52' E 015°47'  
Track history (hours):
 
Tides and Currents Weather Stations Pressure Air Temp Water Temp Dewpoint Dewpoint Depression Visibility Wind Speed Wind Dir Waves Ship Positions

Tinsdal

Last reported at 2016-Dec-09 11:28 UTC. Time now 2016-Dec-10 01:06 UTC.
Position N 38°20' E 012°40'.

Length 90 m; draft 5.5 m.

Type: Cargo ship. MMSI: 305573000.

Date/timePositionNaut miles runAvg speedWind from/ knotsBaromVisibWave heightAir tempDewpointWater temp
2016-Dec-09 11:28N 38°20' E 012°40'1310.4
2016-Dec-09 10:15N 38°23' E 012°56'710.0
2016-Dec-09 09:33N 38°23' E 013°05'1010.2
2016-Dec-09 08:34N 38°23' E 013°18'1010.4
2016-Dec-09 07:34N 38°23' E 013°31'5410.8
2016-Dec-09 02:30N 38°20' E 014°40'1010.6
2016-Dec-09 01:33N 38°19' E 014°53'1010.2
2016-Dec-09 00:34N 38°19' E 015°06'1010.0
2016-Dec-08 23:34N 38°20' E 015°19'1010.2
2016-Dec-08 22:33N 38°21' E 015°32'9 9.0
2016-Dec-08 21:34N 38°17' E 015°42'9 9.4
2016-Dec-08 20:34N 38°08' E 015°37'1110.5
2016-Dec-08 19:33N 37°58' E 015°37'10 9.9
2016-Dec-08 18:33N 37°52' E 015°47'  

Dump ship's entire track history